CYQB

Quebec / Jean Lesage International Airport

Quebec, , Canada
TAF CYQB 171141Z 1712/1812 VRB03KT P6SM FEW020 FM171700 24006KT P6SM BKN060 OVC140 FM172000 34008KT P6SM -SHRA OVC070 FM172200 05010KT 4SM SHRA BR BKN025 OVC040 FM180000 03008KT 2SM SHRA BR BKN012 OVC030 PROB40 1800/1807 1SM SHRA BR OVC008 FM180700 04010KT P6SM FEW015 BKN080 PROB40 1807/1812 1SM BR SCT080 RMK NXT FCST BY 171800Z
Issued Valid From Valid To
Aug-17 @ 11:41 UTC
(3 hours ago)
Aug-17 @ 12:00 UTC
(3 hours ago)
Aug-18 @ 12:00 UTC
(in 21 hours)
Aug-17 @ 12:00 to Aug-17 @ 17:00
TAF CYQB 171141Z 1712/1812 VRB03KT P6SM FEW020
Wind Visibility Clouds
Variable at 3 knots Greater than 6 miles
  • Few at 2,000' AGL
From Aug-17 @ 17:00 to Aug-17 @ 20:00
FM171700 24006KT P6SM BKN060 OVC140
Wind Visibility Clouds
240° at 6 knots Greater than 6 miles
  • Broken at 6,000' AGL
  • Overcast at 14,000' AGL
From Aug-17 @ 20:00 to Aug-17 @ 22:00
FM172000 34008KT P6SM -SHRA OVC070
Wind Visibility Clouds Conditions
340° at 8 knots Greater than 6 miles
  • Overcast at 7,000' AGL
  • Light Rain
From Aug-17 @ 22:00 to Aug-18 @ 00:00
FM172200 05010KT 4SM SHRA BR BKN025 OVC040
Wind Visibility Clouds Conditions
50° at 10 knots 4 miles
  • Broken at 2,500' AGL
  • Overcast at 4,000' AGL
  • Rain
  • Mist
Probable  (Probability 40%) Aug-18 @ 00:00 to Aug-18 @ 07:00
PROB40 1800/1807 1SM SHRA BR OVC008
Visibility Clouds Conditions
1 miles
  • Overcast at 800' AGL
  • Rain
  • Mist
From Aug-18 @ 00:00 to Aug-18 @ 07:00
FM180000 03008KT 2SM SHRA BR BKN012 OVC030
Wind Visibility Clouds Conditions
30° at 8 knots 2 miles
  • Broken at 1,200' AGL
  • Overcast at 3,000' AGL
  • Rain
  • Mist
Probable  (Probability 40%) Aug-18 @ 07:00 to Aug-18 @ 12:00
PROB40 1807/1812 1SM BR SCT080 RMK NXT FCST BY 171800Z
Visibility Clouds Conditions
1 miles
  • Scattered at 8,000' AGL
  • Mist
From Aug-18 @ 07:00 to Aug-18 @ 12:00
FM180700 04010KT P6SM FEW015 BKN080
Wind Visibility Clouds
40° at 10 knots Greater than 6 miles
  • Few at 1,500' AGL
  • Broken at 8,000' AGL
TAF CYQB 171141Z 1712/1812 VRB03KT P6SM FEW020 FM171700 24006KT P6SM BKN060 OVC140 FM172000 34008KT P6SM -SHRA OVC070 FM172200 05010KT 4SM SHRA BR BKN025 OVC040 FM180000 03008KT 2SM SHRA BR BKN012 OVC030 PROB40 1800/1807 1SM SHRA BR OVC008 FM180700 04010KT P6SM FEW015 BKN080 PROB40 1807/1812 1SM BR SCT080 RMK NXT FCST BY 171800Z
Issued Aug-17 @ 11:41 UTC
(3 hours ago)
Valid From Aug-17 @ 12:00 UTC
(3 hours ago)
Valid To Aug-18 @ 12:00 UTC
(in 21 hours)
Aug-17 @ 12:00 - Aug-17 @ 17:00
Wind Visibility
Variable at 3 knots Greater than 6 miles
Clouds
  • Few at 2,000' AGL
From Aug-17 @ 17:00 - Aug-17 @ 20:00
Wind Visibility
240° at 6 knots Greater than 6 miles
Clouds
  • Broken at 6,000' AGL
  • Overcast at 14,000' AGL
From Aug-17 @ 20:00 - Aug-17 @ 22:00
Wind Visibility
340° at 8 knots Greater than 6 miles
Clouds
  • Overcast at 7,000' AGL
Conditions
  • Light Rain
From Aug-17 @ 22:00 - Aug-18 @ 00:00
Wind Visibility
50° at 10 knots 4 miles
Clouds
  • Broken at 2,500' AGL
  • Overcast at 4,000' AGL
Conditions
  • Rain
  • Mist
Probability 40% Probable Aug-18 @ 00:00 - Aug-18 @ 07:00
Clouds
  • Overcast at 800' AGL
Conditions
  • Rain
  • Mist
From Aug-18 @ 00:00 - Aug-18 @ 07:00
Wind Visibility
30° at 8 knots 2 miles
Clouds
  • Broken at 1,200' AGL
  • Overcast at 3,000' AGL
Conditions
  • Rain
  • Mist
Probability 40% Probable Aug-18 @ 07:00 - Aug-18 @ 12:00
Clouds
  • Scattered at 8,000' AGL
Conditions
  • Mist
From Aug-18 @ 07:00 - Aug-18 @ 12:00
Wind Visibility
40° at 10 knots Greater than 6 miles
Clouds
  • Few at 1,500' AGL
  • Broken at 8,000' AGL